Time;durP1;ratioP1;P1;durP2;ratioP2;P2;SDS_P1;SDS_P2;PMS_P1;PMS_P2;Temp;Humidity;BMP_temperature;BMP_pressure;BME280_temperature;BME280_humidity;BME280_pressure;Samples;Min_cycle;Max_cycle;Signal;HPM_P1;HPM_P2
2023/04/14 01:01:50;;;;;;;62.70;20.17;;;;;;;;;;2234377;23;20188;-74
2023/04/14 01:03:11;;;;;;;20.00;12.02;;;;;;;;;;2040356;29;20059;-74
2023/04/14 01:04:32;;;;;;;21.10;12.45;;;;;;;;;;2037174;29;20051;-74
2023/04/14 01:05:53;;;;;;;17.77;11.35;;;;;;;;;;2036752;29;20051;-73
2023/04/14 01:07:15;;;;;;;;;;;;;;;;;;2037823;29;20095;-74
2023/04/14 01:08:35;;;;;;;21.65;10.75;;;;;;;;;;2045053;29;19926;-74
2023/04/14 01:09:57;;;;;;;20.48;12.80;;;;;;;;;;2040591;29;20446;-74
2023/04/14 01:11:17;;;;;;;14.57;10.77;;;;;;;;;;2040153;29;20024;-74
2023/04/14 01:12:48;;;;;;;14.70;11.15;;;;;;;;;;2039710;29;20027;-73
2023/04/14 01:14:17;;;;;;;26.58;11.57;;;;;;;;;;2037980;29;20027;-73
2023/04/14 01:15:40;;;;;;;23.92;12.38;;;;;;;;;;2039697;29;20447;-73
2023/04/14 01:17:06;;;;;;;18.77;12.25;;;;;;;;;;2039744;29;20048;-74
2023/04/14 01:18:35;;;;;;;15.70;11.25;;;;;;;;;;2045101;29;20035;-73
2023/04/14 01:20:14;;;;;;;22.50;12.50;;;;;;;;;;2033500;29;20024;-73
2023/04/14 01:21:37;;;;;;;16.98;12.65;;;;;;;;;;2033551;29;20035;-74
2023/04/14 01:23:05;;;;;;;14.98;10.13;;;;;;;;;;2040509;29;20031;-73
2023/04/14 01:24:25;;;;;;;18.00;11.85;;;;;;;;;;2039779;29;20020;-74
2023/04/14 01:25:46;;;;;;;18.52;12.55;;;;;;;;;;2038783;28;20040;-74
2023/04/14 01:27:26;;;;;;;18.52;11.32;;;;;;;;;;2039229;29;20039;-73
2023/04/14 01:29:05;;;;;;;16.15;11.07;;;;;;;;;;2036390;29;20036;-73
2023/04/14 01:30:37;;;;;;;16.88;10.73;;;;;;;;;;2040555;29;20123;-74
2023/04/14 01:31:59;;;;;;;;;;;;;;;;;;2038131;29;20042;-73
2023/04/14 01:33:22;;;;;;;15.45;11.15;;;;;;;;;;2041702;29;19914;-73
2023/04/14 01:34:48;;;;;;;15.55;11.40;;;;;;;;;;2032615;29;20033;-73
2023/04/14 01:36:12;;;;;;;15.15;11.25;;;;;;;;;;2038552;29;20047;-73
2023/04/14 01:37:34;;;;;;;21.40;12.55;;;;;;;;;;2039650;29;20028;-73
2023/04/14 01:38:55;;;;;;;20.48;11.82;;;;;;;;;;2037604;29;20062;-74
2023/04/14 01:40:18;;;;;;;14.57;11.43;;;;;;;;;;2041088;29;20063;-73
2023/04/14 01:41:42;;;;;;;20.70;12.10;;;;;;;;;;2040776;29;20107;-73
2023/04/14 01:43:07;;;;;;;20.23;12.65;;;;;;;;;;2041658;29;20467;-73
2023/04/14 01:44:29;;;;;;;15.10;11.50;;;;;;;;;;2040038;29;20048;-74
2023/04/14 01:45:50;;;;;;;;;;;;;;;;;;2033486;28;20048;-73
2023/04/14 01:47:12;;;;;;;22.90;11.75;;;;;;;;;;2043538;28;19914;-73
2023/04/14 01:48:34;;;;;;;19.20;11.80;;;;;;;;;;2045187;28;20035;-74
2023/04/14 01:49:55;;;;;;;16.45;11.07;;;;;;;;;;2034860;29;20035;-73
2023/04/14 01:51:20;;;;;;;12.88;11.00;;;;;;;;;;2032749;29;20036;-73
2023/04/14 01:52:43;;;;;;;22.30;11.73;;;;;;;;;;2046890;29;20015;-73
2023/04/14 01:54:06;;;;;;;20.63;11.32;;;;;;;;;;2040065;29;20051;-73
2023/04/14 01:55:28;;;;;;;14.98;12.05;;;;;;;;;;2038870;28;20042;-73
2023/04/14 01:56:50;;;;;;;19.05;11.65;;;;;;;;;;2034024;29;20028;-73
2023/04/14 01:58:12;;;;;;;15.63;11.23;;;;;;;;;;2040118;29;20047;-73
2023/04/14 01:59:35;;;;;;;16.35;11.77;;;;;;;;;;2036772;29;20403;-72
2023/04/14 02:00:57;;;;;;;18.40;12.45;;;;;;;;;;2029591;29;20028;-73
2023/04/14 02:02:18;;;;;;;15.68;11.50;;;;;;;;;;2037345;29;20047;-73
2023/04/14 02:03:39;;;;;;;20.83;12.10;;;;;;;;;;2041305;29;20425;-74
2023/04/14 02:05:02;;;;;;;14.88;10.90;;;;;;;;;;2040358;29;20061;-74
2023/04/14 02:06:23;;;;;;;19.25;11.13;;;;;;;;;;2039462;29;20035;-73
2023/04/14 02:07:45;;;;;;;20.95;12.50;;;;;;;;;;2039158;29;20083;-73
2023/04/14 02:09:11;;;;;;;18.20;11.75;;;;;;;;;;2038020;29;20032;-73
2023/04/14 02:10:32;;;;;;;19.15;11.90;;;;;;;;;;2038341;29;20028;-73
2023/04/14 02:11:54;;;;;;;21.10;12.00;;;;;;;;;;2039898;29;20038;-73
2023/04/14 02:13:17;;;;;;;20.00;11.60;;;;;;;;;;2039009;29;20035;-73
2023/04/14 02:14:39;;;;;;;14.57;10.75;;;;;;;;;;2037041;29;20024;-73
2023/04/14 02:16:01;;;;;;;19.45;10.80;;;;;;;;;;2039124;28;20400;-74
2023/04/14 02:17:23;;;;;;;17.83;11.75;;;;;;;;;;2042289;29;20091;-73
2023/04/14 02:18:44;;;;;;;12.23;10.38;;;;;;;;;;2040027;29;20032;-73
2023/04/14 02:20:08;;;;;;;20.75;12.50;;;;;;;;;;2038875;29;20027;-73
2023/04/14 02:21:30;;;;;;;14.43;10.32;;;;;;;;;;2039903;29;20024;-73
2023/04/14 02:22:50;;;;;;;16.27;11.70;;;;;;;;;;2040471;29;20329;-74
2023/04/14 02:24:11;;;;;;;12.93;10.32;;;;;;;;;;2041389;29;20071;-74
2023/04/14 02:25:33;;;;;;;23.52;12.25;;;;;;;;;;2039634;28;20040;-73
2023/04/14 02:26:57;;;;;;;15.23;10.80;;;;;;;;;;2038548;29;20043;-73
2023/04/14 02:28:19;;;;;;;14.43;10.23;;;;;;;;;;2041957;29;20039;-73
2023/04/14 02:29:41;;;;;;;17.35;11.55;;;;;;;;;;2033511;29;20035;-73
2023/04/14 02:31:06;;;;;;;16.55;11.70;;;;;;;;;;2034536;29;20028;-74
2023/04/14 02:32:28;;;;;;;17.45;11.65;;;;;;;;;;2039243;29;20035;-73
2023/04/14 02:33:49;;;;;;;;;;;;;;;;;;2036968;29;20035;-73
2023/04/14 02:35:12;;;;;;;14.20;10.90;;;;;;;;;;2040352;29;20350;-73
2023/04/14 02:36:33;;;;;;;14.93;11.27;;;;;;;;;;2039584;29;20036;-73
2023/04/14 02:37:59;;;;;;;18.88;11.63;;;;;;;;;;2045923;28;20110;-73
2023/04/14 02:39:22;;;;;;;20.08;11.38;;;;;;;;;;2041330;29;20024;-73
2023/04/14 02:40:43;;;;;;;19.23;11.55;;;;;;;;;;2040123;29;20032;-74
2023/04/14 02:42:11;;;;;;;16.80;11.30;;;;;;;;;;2035532;29;20040;-73
2023/04/14 02:43:35;;;;;;;18.10;11.10;;;;;;;;;;2044490;29;20517;-73
2023/04/14 02:45:02;;;;;;;15.20;10.93;;;;;;;;;;2033354;29;20036;-73
2023/04/14 02:46:24;;;;;;;18.50;11.68;;;;;;;;;;2039032;28;20542;-73
2023/04/14 02:47:46;;;;;;;14.82;11.50;;;;;;;;;;2040125;29;20447;-73
2023/04/14 02:49:09;;;;;;;15.43;10.52;;;;;;;;;;2040950;29;20106;-73
2023/04/14 02:50:31;;;;;;;11.98;9.70;;;;;;;;;;2034790;29;20379;-74
2023/04/14 02:51:52;;;;;;;20.15;11.50;;;;;;;;;;2033382;29;20441;-73
2023/04/14 02:53:16;;;;;;;19.38;11.32;;;;;;;;;;2044156;29;20384;-73
2023/04/14 02:54:37;;;;;;;18.83;10.82;;;;;;;;;;2038594;29;20040;-73
2023/04/14 02:55:59;;;;;;;15.52;11.60;;;;;;;;;;2038981;28;20035;-74
2023/04/14 02:57:20;;;;;;;17.70;11.40;;;;;;;;;;2038486;29;20019;-73
2023/04/14 02:58:42;;;;;;;16.85;11.40;;;;;;;;;;2044990;29;20042;-73
2023/04/14 03:00:04;;;;;;;18.92;11.75;;;;;;;;;;2036916;29;20036;-73
2023/04/14 03:01:26;;;;;;;16.90;11.52;;;;;;;;;;2031816;29;20044;-72
2023/04/14 03:02:47;;;;;;;20.05;11.77;;;;;;;;;;2047387;28;20063;-73
2023/04/14 03:04:08;;;;;;;19.13;10.38;;;;;;;;;;2040962;28;20044;-74
2023/04/14 03:05:30;;;;;;;15.38;10.70;;;;;;;;;;2038469;28;20035;-74
2023/04/14 03:06:51;;;;;;;;;;;;;;;;;;2038014;29;20044;-73
2023/04/14 03:08:13;;;;;;;14.23;9.77;;;;;;;;;;2040257;29;19918;-73
2023/04/14 03:09:35;;;;;;;28.60;10.95;;;;;;;;;;2039593;29;20039;-73
2023/04/14 03:10:56;;;;;;;15.13;12.00;;;;;;;;;;2038962;29;20028;-74
2023/04/14 03:12:17;;;;;;;15.75;10.80;;;;;;;;;;2039485;29;20035;-73
2023/04/14 03:13:39;;;;;;;14.57;9.82;;;;;;;;;;2043819;29;20032;-73
2023/04/14 03:15:00;;;;;;;18.77;11.02;;;;;;;;;;2036405;29;20028;-72
2023/04/14 03:16:22;;;;;;;15.38;10.70;;;;;;;;;;2035330;29;20474;-73
2023/04/14 03:17:45;;;;;;;22.13;11.77;;;;;;;;;;2039076;29;20035;-72
2023/04/14 03:19:11;;;;;;;20.92;10.70;;;;;;;;;;2038398;29;20028;-73
2023/04/14 03:20:32;;;;;;;16.60;10.68;;;;;;;;;;2040596;29;20039;-73
2023/04/14 03:21:54;;;;;;;22.45;10.93;;;;;;;;;;2039777;29;20031;-73
2023/04/14 03:23:17;;;;;;;16.25;10.35;;;;;;;;;;2044124;29;20046;-73
2023/04/14 03:24:39;;;;;;;14.18;10.25;;;;;;;;;;2030371;29;20036;-74
2023/04/14 03:26:02;;;;;;;15.98;10.68;;;;;;;;;;2030770;28;20045;-73
2023/04/14 03:27:26;;;;;;;13.25;9.73;;;;;;;;;;2037027;29;20080;-72
2023/04/14 03:28:49;;;;;;;18.08;11.02;;;;;;;;;;2036404;29;20106;-73
2023/04/14 03:30:11;;;;;;;16.92;9.80;;;;;;;;;;2040285;29;20024;-73
2023/04/14 03:31:35;;;;;;;17.77;10.75;;;;;;;;;;2038877;29;20036;-73
2023/04/14 03:32:59;;;;;;;15.82;10.98;;;;;;;;;;2039517;29;20550;-74
2023/04/14 03:34:22;;;;;;;14.13;11.18;;;;;;;;;;2038623;29;20124;-73
2023/04/14 03:35:43;;;;;;;13.55;10.50;;;;;;;;;;2038603;28;20027;-73
2023/04/14 03:37:05;;;;;;;22.88;11.70;;;;;;;;;;2039211;29;20411;-73
2023/04/14 03:38:26;;;;;;;14.55;9.77;;;;;;;;;;2042525;29;20039;-73
2023/04/14 03:39:49;;;;;;;20.15;11.70;;;;;;;;;;2039968;29;20039;-73
2023/04/14 03:41:10;;;;;;;15.68;10.93;;;;;;;;;;2040067;29;20036;-74
2023/04/14 03:42:32;;;;;;;18.10;11.32;;;;;;;;;;2039041;29;20048;-73
2023/04/14 03:43:55;;;;;;;;;;;;;;;;;;2036385;29;20031;-73
2023/04/14 03:45:16;;;;;;;19.27;10.63;;;;;;;;;;2039784;29;19907;-73
2023/04/14 03:46:37;;;;;;;17.95;11.25;;;;;;;;;;2039298;29;20040;-73
2023/04/14 03:48:00;;;;;;;19.38;11.20;;;;;;;;;;2039552;29;20083;-73
2023/04/14 03:49:23;;;;;;;15.77;11.27;;;;;;;;;;2039617;29;20040;-73
2023/04/14 03:50:45;;;;;;;16.85;10.15;;;;;;;;;;2033433;29;20083;-73
2023/04/14 03:52:09;;;;;;;16.23;10.25;;;;;;;;;;2035787;29;20035;-73
2023/04/14 03:53:30;;;;;;;23.50;11.82;;;;;;;;;;2040735;29;20023;-73
2023/04/14 03:54:53;;;;;;;13.25;10.00;;;;;;;;;;2040899;29;20028;-73
2023/04/14 03:56:14;;;;;;;29.23;12.32;;;;;;;;;;2042751;28;20509;-73
2023/04/14 03:57:36;;;;;;;18.85;10.70;;;;;;;;;;2034609;29;20032;-73
2023/04/14 03:58:58;;;;;;;15.15;10.48;;;;;;;;;;2032811;29;20301;-73
2023/04/14 04:00:19;;;;;;;19.38;11.73;;;;;;;;;;2042328;29;20035;-73
2023/04/14 04:01:41;;;;;;;20.08;10.90;;;;;;;;;;2038301;29;20408;-73
2023/04/14 04:03:03;;;;;;;16.30;10.60;;;;;;;;;;2044571;29;20506;-74
2023/04/14 04:04:24;;;;;;;23.60;12.55;;;;;;;;;;2040627;29;20722;-74
2023/04/14 04:05:45;;;;;;;21.55;12.48;;;;;;;;;;2032917;29;20488;-73
2023/04/14 04:07:09;;;;;;;22.08;12.70;;;;;;;;;;2036979;29;20043;-73
2023/04/14 04:08:30;;;;;;;22.58;11.85;;;;;;;;;;2044456;29;20046;-73
2023/04/14 04:09:52;;;;;;;25.17;13.07;;;;;;;;;;2039599;29;20059;-73
2023/04/14 04:11:17;;;;;;;15.82;11.82;;;;;;;;;;2033553;29;20156;-73
2023/04/14 04:12:40;;;;;;;18.38;10.80;;;;;;;;;;2037465;29;20028;-73
2023/04/14 04:14:02;;;;;;;13.45;10.23;;;;;;;;;;2036994;29;20035;-73
2023/04/14 04:15:25;;;;;;;20.38;11.50;;;;;;;;;;2040454;29;20384;-73
2023/04/14 04:16:48;;;;;;;20.25;11.80;;;;;;;;;;2039239;29;20134;-73
2023/04/14 04:18:10;;;;;;;14.38;11.35;;;;;;;;;;2043295;29;20056;-73
2023/04/14 04:19:31;;;;;;;17.38;12.23;;;;;;;;;;2038198;29;20562;-73
2023/04/14 04:20:54;;;;;;;18.08;10.77;;;;;;;;;;2040953;29;20058;-73
2023/04/14 04:22:16;;;;;;;24.05;11.98;;;;;;;;;;2040831;29;20032;-73
2023/04/14 04:23:39;;;;;;;25.00;12.50;;;;;;;;;;2039360;29;20131;-73
2023/04/14 04:25:00;;;;;;;21.90;11.98;;;;;;;;;;2043089;29;20044;-73
2023/04/14 04:26:24;;;;;;;24.63;12.35;;;;;;;;;;2032144;29;20123;-73
2023/04/14 04:27:45;;;;;;;17.05;10.57;;;;;;;;;;2040743;29;20498;-73
2023/04/14 04:29:06;;;;;;;21.00;11.70;;;;;;;;;;2044837;29;20038;-73
2023/04/14 04:30:28;;;;;;;21.48;12.63;;;;;;;;;;2038746;29;20023;-73
2023/04/14 04:31:49;;;;;;;21.50;12.80;;;;;;;;;;2042355;29;20024;-73
2023/04/14 04:33:10;;;;;;;16.65;11.90;;;;;;;;;;2044514;29;20050;-74
2023/04/14 04:34:32;;;;;;;22.98;12.38;;;;;;;;;;2039362;29;20325;-73
2023/04/14 04:35:54;;;;;;;20.27;12.90;;;;;;;;;;2039867;28;20051;-73
2023/04/14 04:37:15;;;;;;;26.88;12.95;;;;;;;;;;2039303;29;20020;-73
2023/04/14 04:38:36;;;;;;;20.92;11.45;;;;;;;;;;2044836;29;20482;-73
2023/04/14 04:39:57;;;;;;;21.75;12.32;;;;;;;;;;2042082;29;20032;-73
2023/04/14 04:41:21;;;;;;;17.92;11.45;;;;;;;;;;2032875;29;20051;-73
2023/04/14 04:42:42;;;;;;;21.63;12.75;;;;;;;;;;2036783;29;20038;-74
2023/04/14 04:44:03;;;;;;;24.90;12.77;;;;;;;;;;2038337;29;20038;-74
2023/04/14 04:45:41;;;;;;;20.52;11.98;;;;;;;;;;2048771;28;20542;-73
2023/04/14 04:47:02;;;;;;;24.48;12.65;;;;;;;;;;2045363;28;20043;-73
2023/04/14 04:48:23;;;;;;;19.02;12.27;;;;;;;;;;2046012;29;20031;-73
2023/04/14 04:49:44;;;;;;;21.63;13.05;;;;;;;;;;2032161;29;20424;-73
2023/04/14 04:51:05;;;;;;;24.83;13.07;;;;;;;;;;2038757;29;20028;-73
2023/04/14 04:52:26;;;;;;;19.83;12.32;;;;;;;;;;2040266;29;20028;-73
2023/04/14 04:53:46;;;;;;;27.45;11.85;;;;;;;;;;2037915;29;20455;-74
2023/04/14 04:55:07;;;;;;;20.52;12.90;;;;;;;;;;2048648;28;20291;-73
2023/04/14 04:56:28;;;;;;;19.35;12.25;;;;;;;;;;2043140;28;20133;-73
2023/04/14 04:57:49;;;;;;;18.10;11.63;;;;;;;;;;2040353;29;20087;-73
2023/04/14 04:59:10;;;;;;;18.02;12.40;;;;;;;;;;2039988;29;20347;-74
2023/04/14 05:00:31;;;;;;;17.15;11.23;;;;;;;;;;2040312;29;20155;-73
2023/04/14 05:01:52;;;;;;;18.38;11.82;;;;;;;;;;2039849;29;20028;-73
2023/04/14 05:03:13;;;;;;;22.77;11.88;;;;;;;;;;2040906;29;20035;-74
2023/04/14 05:04:34;;;;;;;22.70;12.60;;;;;;;;;;2039225;29;20090;-73
2023/04/14 05:05:57;;;;;;;20.50;12.48;;;;;;;;;;2039353;29;20032;-76
2023/04/14 05:07:18;;;;;;;18.65;11.45;;;;;;;;;;2038923;29;20040;-76
2023/04/14 05:08:39;;;;;;;23.77;12.50;;;;;;;;;;2044140;29;20047;-76
2023/04/14 05:10:00;;;;;;;18.88;11.68;;;;;;;;;;2041713;29;20442;-76
2023/04/14 05:11:21;;;;;;;20.40;12.02;;;;;;;;;;2040858;29;20027;-76
2023/04/14 05:12:42;;;;;;;15.50;11.02;;;;;;;;;;2039091;29;20545;-76
2023/04/14 05:14:03;;;;;;;24.60;12.82;;;;;;;;;;2038022;29;20032;-76
2023/04/14 05:15:24;;;;;;;26.80;12.65;;;;;;;;;;2036533;29;20493;-76
2023/04/14 05:16:46;;;;;;;22.30;11.67;;;;;;;;;;2035013;29;20043;-76
2023/04/14 05:18:06;;;;;;;23.45;11.80;;;;;;;;;;2041108;29;20460;-77
2023/04/14 05:19:27;;;;;;;18.67;12.48;;;;;;;;;;2039777;29;20086;-76
2023/04/14 05:20:48;;;;;;;23.95;14.00;;;;;;;;;;2038841;29;20040;-76
2023/04/14 05:22:09;;;;;;;32.08;12.30;;;;;;;;;;2036571;29;20043;-76
2023/04/14 05:23:34;;;;;;;22.05;11.63;;;;;;;;;;2041709;29;20035;-76
2023/04/14 05:24:55;;;;;;;24.38;13.07;;;;;;;;;;2033610;29;20124;-76
2023/04/14 05:26:16;;;;;;;23.83;12.60;;;;;;;;;;2039166;29;20040;-76
2023/04/14 05:27:37;;;;;;;17.48;11.65;;;;;;;;;;2036109;29;20031;-77
2023/04/14 05:28:58;;;;;;;20.10;12.00;;;;;;;;;;2039159;29;20381;-77
2023/04/14 05:30:19;;;;;;;27.30;13.15;;;;;;;;;;2039880;29;20031;-77
2023/04/14 05:31:40;;;;;;;23.85;12.85;;;;;;;;;;2037842;29;20032;-77
2023/04/14 05:33:00;;;;;;;29.90;13.50;;;;;;;;;;2040004;29;20504;-77
2023/04/14 05:34:21;;;;;;;22.70;12.80;;;;;;;;;;2036945;29;20044;-76
2023/04/14 05:35:45;;;;;;;19.98;12.57;;;;;;;;;;2045841;28;20040;-76
2023/04/14 05:37:06;;;;;;;26.88;12.27;;;;;;;;;;2041151;28;20523;-76
2023/04/14 05:38:27;;;;;;;19.35;11.02;;;;;;;;;;2039478;29;20032;-76
2023/04/14 05:39:48;;;;;;;24.02;13.75;;;;;;;;;;2039260;29;20036;-76
2023/04/14 05:41:09;;;;;;;20.23;12.50;;;;;;;;;;2040013;29;20043;-75
2023/04/14 05:42:30;;;;;;;18.88;12.20;;;;;;;;;;2037300;29;20036;-76
2023/04/14 05:43:51;;;;;;;17.13;11.57;;;;;;;;;;2040077;29;20043;-75
2023/04/14 05:45:12;;;;;;;19.83;11.80;;;;;;;;;;2041154;29;20038;-75
2023/04/14 05:46:33;;;;;;;19.20;12.23;;;;;;;;;;2039178;29;20491;-76
2023/04/14 05:47:54;;;;;;;21.77;13.18;;;;;;;;;;2040651;29;20048;-75
2023/04/14 05:49:15;;;;;;;23.67;12.73;;;;;;;;;;2039184;29;20027;-75
2023/04/14 05:50:37;;;;;;;21.48;11.93;;;;;;;;;;2034488;29;20035;-76
2023/04/14 05:51:58;;;;;;;22.45;12.27;;;;;;;;;;2037417;29;20028;-75
2023/04/14 05:53:18;;;;;;;17.92;10.32;;;;;;;;;;2039241;29;20035;-76
2023/04/14 05:54:39;;;;;;;16.35;10.90;;;;;;;;;;2036840;29;20024;-73
2023/04/14 05:56:00;;;;;;;15.77;11.60;;;;;;;;;;2040072;29;20377;-73
2023/04/14 05:57:21;;;;;;;18.27;11.68;;;;;;;;;;2038097;29;20035;-73
2023/04/14 05:58:42;;;;;;;25.63;13.57;;;;;;;;;;2043000;29;20102;-73
2023/04/14 06:00:05;;;;;;;19.77;11.15;;;;;;;;;;2039367;29;20099;-73
2023/04/14 06:01:25;;;;;;;18.80;12.15;;;;;;;;;;2036659;29;20036;-74
2023/04/14 06:02:46;;;;;;;24.88;12.98;;;;;;;;;;2036712;29;20372;-73
2023/04/14 06:04:07;;;;;;;22.38;11.60;;;;;;;;;;2036261;29;20039;-74
2023/04/14 06:05:28;;;;;;;28.05;13.70;;;;;;;;;;2037281;29;20090;-74
2023/04/14 06:06:49;;;;;;;25.20;12.73;;;;;;;;;;2034848;28;20124;-74
2023/04/14 06:08:10;;;;;;;20.15;12.63;;;;;;;;;;2037128;29;20039;-74
2023/04/14 06:09:31;;;;;;;23.38;11.52;;;;;;;;;;2038598;29;20139;-74
2023/04/14 06:10:52;;;;;;;25.42;13.60;;;;;;;;;;2035456;29;20040;-74
2023/04/14 06:12:13;;;;;;;22.55;11.68;;;;;;;;;;2035645;29;20032;-74
2023/04/14 06:13:34;;;;;;;22.42;12.27;;;;;;;;;;2049609;28;20082;-74
2023/04/14 06:14:55;;;;;;;24.70;12.63;;;;;;;;;;2037864;29;20024;-75
2023/04/14 06:16:16;;;;;;;25.33;12.52;;;;;;;;;;2037468;29;20091;-75
2023/04/14 06:17:37;;;;;;;20.58;11.65;;;;;;;;;;2042051;29;20031;-75
2023/04/14 06:18:57;;;;;;;29.27;13.52;;;;;;;;;;2033619;29;20044;-75
2023/04/14 06:20:20;;;;;;;23.10;12.02;;;;;;;;;;2046391;28;20031;-75
2023/04/14 06:21:41;;;;;;;19.80;11.80;;;;;;;;;;2040123;29;20043;-75
2023/04/14 06:23:02;;;;;;;19.45;11.55;;;;;;;;;;2038565;29;20046;-75
2023/04/14 06:24:23;;;;;;;21.83;12.05;;;;;;;;;;2038579;29;20039;-75
2023/04/14 06:25:44;;;;;;;19.67;11.27;;;;;;;;;;2035407;29;20036;-75
2023/04/14 06:27:05;;;;;;;16.40;10.57;;;;;;;;;;2038898;28;20496;-75
2023/04/14 06:28:26;;;;;;;23.75;11.57;;;;;;;;;;2038133;29;20035;-75
2023/04/14 06:29:47;;;;;;;20.58;11.15;;;;;;;;;;2038402;29;20040;-76
2023/04/14 06:31:08;;;;;;;24.55;11.15;;;;;;;;;;2037800;29;20376;-76
2023/04/14 06:32:29;;;;;;;21.08;10.73;;;;;;;;;;2037257;29;20102;-75
2023/04/14 06:33:51;;;;;;;24.55;12.15;;;;;;;;;;2038353;29;20403;-75
2023/04/14 06:35:12;;;;;;;22.73;11.85;;;;;;;;;;2037767;29;20032;-75
2023/04/14 06:36:33;;;;;;;26.73;13.32;;;;;;;;;;2035805;28;20088;-76
2023/04/14 06:37:54;;;;;;;18.40;11.10;;;;;;;;;;2039091;29;20098;-76
2023/04/14 06:39:15;;;;;;;21.05;11.23;;;;;;;;;;2039067;29;20036;-76
2023/04/14 06:40:36;;;;;;;20.02;11.13;;;;;;;;;;2030724;29;20032;-75
2023/04/14 06:41:57;;;;;;;23.77;11.85;;;;;;;;;;2039258;28;20371;-74
2023/04/14 06:43:18;;;;;;;19.38;11.05;;;;;;;;;;2037570;29;20136;-74
2023/04/14 06:44:39;;;;;;;37.30;14.52;;;;;;;;;;2028803;29;20094;-72
2023/04/14 06:46:00;;;;;;;23.60;11.15;;;;;;;;;;2031813;29;20032;-70
2023/04/14 06:47:21;;;;;;;27.67;12.13;;;;;;;;;;2046910;28;20466;-69
2023/04/14 06:48:42;;;;;;;18.67;10.57;;;;;;;;;;2030204;29;20044;-71
2023/04/14 06:50:03;;;;;;;17.05;11.15;;;;;;;;;;2037235;29;20042;-71
2023/04/14 06:51:25;;;;;;;19.80;10.40;;;;;;;;;;2037510;29;20040;-72
2023/04/14 06:52:46;;;;;;;;;;;;;;;;;;2035602;29;20126;-72
2023/04/14 06:54:07;;;;;;;17.30;10.40;;;;;;;;;;2031806;29;19911;-71
2023/04/14 06:55:28;;;;;;;22.20;11.07;;;;;;;;;;2039480;29;20028;-71
2023/04/14 06:56:49;;;;;;;23.35;11.55;;;;;;;;;;2034504;29;20036;-72
2023/04/14 06:58:10;;;;;;;19.92;10.30;;;;;;;;;;2034781;29;20356;-70
2023/04/14 06:59:30;;;;;;;19.17;9.00;;;;;;;;;;2038831;29;20035;-70
2023/04/14 07:00:58;;;;;;;13.27;8.60;;;;;;;;;;2031914;29;20036;-68
2023/04/14 07:02:19;;;;;;;18.80;8.65;;;;;;;;;;2035230;29;20029;-68
2023/04/14 07:03:40;;;;;;;24.38;9.63;;;;;;;;;;2041142;29;20031;-68
2023/04/14 07:05:01;;;;;;;19.98;8.40;;;;;;;;;;2039396;29;20543;-68
2023/04/14 07:06:23;;;;;;;13.93;7.50;;;;;;;;;;2040141;29;20051;-68
2023/04/14 07:07:44;;;;;;;19.88;8.00;;;;;;;;;;2038514;29;20479;-73
2023/04/14 07:09:04;;;;;;;13.90;7.47;;;;;;;;;;2037629;29;20118;-74
2023/04/14 07:10:25;;;;;;;19.80;7.70;;;;;;;;;;2039302;29;20039;-74
2023/04/14 07:11:46;;;;;;;18.75;8.63;;;;;;;;;;2035843;29;20411;-74
2023/04/14 07:13:07;;;;;;;12.27;7.50;;;;;;;;;;2038520;29;20027;-74
2023/04/14 07:14:30;;;;;;;18.80;8.88;;;;;;;;;;2038400;29;20117;-72
2023/04/14 07:15:51;;;;;;;16.10;8.23;;;;;;;;;;2038965;29;20024;-69
2023/04/14 07:17:11;;;;;;;17.75;7.88;;;;;;;;;;2036405;29;20117;-75
2023/04/14 07:18:33;;;;;;;21.27;8.65;;;;;;;;;;2035500;29;20558;-76
2023/04/14 07:19:54;;;;;;;17.10;7.65;;;;;;;;;;2036210;29;20325;-77
2023/04/14 07:21:14;;;;;;;18.27;8.15;;;;;;;;;;2032060;29;20052;-76
2023/04/14 07:22:35;;;;;;;23.50;9.43;;;;;;;;;;2037244;29;20095;-77
2023/04/14 07:23:56;;;;;;;20.23;8.68;;;;;;;;;;2033248;29;20079;-77
2023/04/14 07:25:17;;;;;;;15.38;7.68;;;;;;;;;;2044499;29;20095;-76
2023/04/14 07:26:38;;;;;;;21.08;9.65;;;;;;;;;;2040166;29;20032;-71
2023/04/14 07:27:59;;;;;;;24.17;8.65;;;;;;;;;;2039385;29;20051;-71
2023/04/14 07:29:20;;;;;;;17.65;7.70;;;;;;;;;;2037703;29;20129;-72
2023/04/14 07:30:41;;;;;;;21.58;7.95;;;;;;;;;;2043751;28;20019;-72
2023/04/14 07:32:02;;;;;;;15.68;8.07;;;;;;;;;;2033453;29;20036;-72
2023/04/14 07:33:23;;;;;;;19.83;8.82;;;;;;;;;;2038225;29;20386;-75
2023/04/14 07:34:44;;;;;;;14.93;7.47;;;;;;;;;;2037557;29;20139;-74
2023/04/14 07:36:05;;;;;;;15.20;7.75;;;;;;;;;;2040489;29;20507;-74
2023/04/14 07:37:27;;;;;;;14.38;7.72;;;;;;;;;;2040959;28;20411;-74
2023/04/14 07:38:48;;;;;;;15.30;8.10;;;;;;;;;;2039978;29;20039;-74
2023/04/14 07:40:09;;;;;;;14.20;7.95;;;;;;;;;;2041136;29;20032;-74
2023/04/14 07:41:30;;;;;;;17.58;8.48;;;;;;;;;;2036311;29;20067;-74
2023/04/14 07:42:51;;;;;;;17.90;8.85;;;;;;;;;;2035723;29;20032;-74
2023/04/14 07:44:12;;;;;;;15.15;7.65;;;;;;;;;;2042410;29;20035;-75
2023/04/14 07:45:33;;;;;;;14.10;7.50;;;;;;;;;;2039231;29;20040;-72
2023/04/14 07:46:54;;;;;;;16.65;7.82;;;;;;;;;;2029126;28;20044;-74
2023/04/14 07:48:18;;;;;;;15.05;7.85;;;;;;;;;;2039006;29;20466;-74
2023/04/14 07:49:39;;;;;;;15.25;7.68;;;;;;;;;;2042119;29;20032;-74
2023/04/14 07:51:00;;;;;;;11.68;7.18;;;;;;;;;;2041964;29;20055;-74
2023/04/14 07:52:21;;;;;;;10.10;6.30;;;;;;;;;;2040936;29;20023;-74
2023/04/14 07:53:43;;;;;;;12.65;7.45;;;;;;;;;;2041214;29;20039;-74
2023/04/14 07:55:05;;;;;;;;;;;;;;;;;;2040103;29;20068;-74
2023/04/14 07:56:25;;;;;;;16.70;8.10;;;;;;;;;;2041708;29;20234;-72
2023/04/14 07:57:46;;;;;;;16.92;7.72;;;;;;;;;;2040192;29;20032;-72
2023/04/14 07:59:07;;;;;;;11.93;7.93;;;;;;;;;;2042810;29;20023;-74
2023/04/14 08:00:28;;;;;;;15.82;7.07;;;;;;;;;;2038502;29;20048;-74
2023/04/14 08:01:49;;;;;;;13.07;7.28;;;;;;;;;;2039412;29;20091;-74
2023/04/14 08:03:10;;;;;;;15.55;7.68;;;;;;;;;;2039912;29;20063;-74
2023/04/14 08:04:31;;;;;;;17.52;7.30;;;;;;;;;;2045017;29;20394;-74
2023/04/14 08:05:52;;;;;;;13.15;7.32;;;;;;;;;;2040844;29;20044;-74
2023/04/14 08:07:13;;;;;;;15.82;7.75;;;;;;;;;;2039355;28;20462;-74
2023/04/14 08:08:34;;;;;;;14.40;7.90;;;;;;;;;;2040126;29;20040;-74
2023/04/14 08:09:55;;;;;;;14.05;7.47;;;;;;;;;;2038582;29;20036;-74
2023/04/14 08:11:16;;;;;;;12.63;7.28;;;;;;;;;;2040887;29;20036;-74
2023/04/14 08:12:36;;;;;;;15.13;7.07;;;;;;;;;;2039770;29;20036;-73
2023/04/14 08:13:57;;;;;;;13.27;6.53;;;;;;;;;;2041150;29;20035;-74
2023/04/14 08:15:18;;;;;;;15.30;6.90;;;;;;;;;;2035638;29;20445;-74
2023/04/14 08:16:40;;;;;;;13.60;6.40;;;;;;;;;;2032610;29;20060;-74
2023/04/14 08:18:01;;;;;;;11.68;5.75;;;;;;;;;;2036376;29;20040;-74
2023/04/14 08:19:22;;;;;;;13.30;6.47;;;;;;;;;;2043867;29;20043;-72
2023/04/14 08:20:43;;;;;;;12.68;6.25;;;;;;;;;;2032444;29;20044;-74
2023/04/14 08:22:04;;;;;;;11.35;6.35;;;;;;;;;;2034787;29;20064;-71
2023/04/14 08:23:25;;;;;;;17.15;6.70;;;;;;;;;;2039412;29;20024;-72
2023/04/14 08:24:47;;;;;;;17.05;6.53;;;;;;;;;;2036220;29;20106;-71
2023/04/14 08:26:07;;;;;;;12.05;5.75;;;;;;;;;;2040295;29;20036;-74
2023/04/14 08:27:28;;;;;;;12.27;5.70;;;;;;;;;;2038529;28;20123;-74
2023/04/14 08:28:49;;;;;;;14.55;5.85;;;;;;;;;;2037910;29;20032;-74
2023/04/14 08:30:10;;;;;;;13.07;6.10;;;;;;;;;;2036626;29;20027;-74
2023/04/14 08:31:32;;;;;;;17.25;7.57;;;;;;;;;;2036638;29;20455;-75
2023/04/14 08:32:52;;;;;;;15.32;6.03;;;;;;;;;;2039952;29;20062;-74
2023/04/14 08:34:14;;;;;;;12.75;5.82;;;;;;;;;;2043010;29;20355;-74
2023/04/14 08:35:35;;;;;;;11.63;5.65;;;;;;;;;;2037661;29;20028;-74
2023/04/14 08:36:59;;;;;;;10.00;5.07;;;;;;;;;;2039685;28;20052;-75
2023/04/14 08:38:19;;;;;;;13.25;5.10;;;;;;;;;;2037927;29;20403;-74
2023/04/14 08:39:40;;;;;;;12.32;6.30;;;;;;;;;;2045498;29;20031;-74
2023/04/14 08:41:03;;;;;;;10.63;5.72;;;;;;;;;;2040195;29;20027;-74
2023/04/14 08:42:23;;;;;;;12.35;5.28;;;;;;;;;;2040722;29;20035;-74
2023/04/14 08:43:45;;;;;;;11.40;5.57;;;;;;;;;;2040055;29;20131;-74
2023/04/14 08:45:06;;;;;;;14.60;5.97;;;;;;;;;;2038375;29;20112;-72
2023/04/14 08:46:27;;;;;;;16.33;7.30;;;;;;;;;;2039632;29;20424;-72
2023/04/14 08:47:50;;;;;;;15.02;6.35;;;;;;;;;;2037809;29;20032;-72
2023/04/14 08:49:15;;;;;;;19.58;6.63;;;;;;;;;;2039734;29;20462;-72
2023/04/14 08:50:36;;;;;;;14.52;6.35;;;;;;;;;;2033393;29;20032;-72
2023/04/14 08:51:58;;;;;;;16.23;6.55;;;;;;;;;;2032562;29;20028;-72
2023/04/14 08:53:19;;;;;;;12.15;6.38;;;;;;;;;;2041757;29;20032;-72
2023/04/14 08:54:40;;;;;;;16.30;7.47;;;;;;;;;;2039671;29;20365;-72
2023/04/14 08:56:02;;;;;;;17.63;6.65;;;;;;;;;;2040159;29;20032;-72
2023/04/14 08:57:24;;;;;;;19.83;7.28;;;;;;;;;;2047321;28;20042;-72
2023/04/14 08:58:46;;;;;;;10.23;6.10;;;;;;;;;;2042051;29;20039;-72
2023/04/14 09:00:07;;;;;;;15.57;6.63;;;;;;;;;;2041275;29;20031;-72
2023/04/14 09:01:28;;;;;;;17.20;7.43;;;;;;;;;;2039338;29;20035;-72